Aeroporto :
LOGIN :

Iscrizione | Disclaimer

   EN    FR    IT 

 










Sommario :    VFR   VFR Marginale   IFR   IFR Intensivo   IFR Molto Intensivo
Visibilità : 
Base nubi : 
>= 8 km
>= 3000ft
5 / 8 km
1000 / 3000 ft
1500m / 5 km
500 / 1000 ft
800 / 1500m
200 / 500 ft
< 800m
< 200 ft
Simboli :   Temporali  Nebbia  Neve Forte  Precipitazioni Forti  Vento > 20 kt
SIGMETs :   Varie  Temporali  Ghiacco  Turbolenza  Onda orograficha  Ceneri Vulcaniche






- Altitudine del aeroporto : 220 ft
- Codice IATA : CWL


EGFF - Cardiff Rhoose

ULTIMO METAR :
  • 301220Z AUTO 26012KT 9999 -RA OVC004 14/14 Q1015

METARs OBSOLETI :
  • 301150Z AUTO 26012KT 9999 OVC003 14/14 Q1015
  • 301120Z AUTO 26012KT 9999 -RA BKN007 OVC011 14/14 Q1015
  • 301050Z AUTO 26011KT 9999 OVC011 14/14 Q1015
  • 301020Z AUTO 26012KT 9999 -RA BKN002 OVC009 14/14 Q1014
  • 300950Z AUTO 25009KT 5000 -DZ SCT002 BKN012 OVC017 14/14 Q1014 RERA REDZ

TAF TAF EGFF
Valido dal 30 a 12 ore il 31 a 12 ore UTC


301104Z 3012/3112 23014KT 9999 BKN012
BECMG 3012/3015 VRB04KT
TEMPO 3012/3112 4000 RADZ BKN008
PROB40
TEMPO 3012/3021 1200 BR BKN002
BECMG 3021/3024 18010KT
TEMPO 3100/3106 19018G28KT
BECMG 3106/3109 19020G35KT
PROB40
TEMPO 3110/3112 +RA
ATIS : +44 1446 729 319



MetMap, La meteo Aeronautica in un colpo d'occhio ! - Copyright ORBIFLY Dicembre 2007 - Disclaimer

ORBIFLY MET'MAP TEAM :

Programmazione e sviluppo : Alexandra Zaïnal
Concezione : Baudouin d'Aumeries
Aiuto per la programmazione : Marc-Olivier Méhu
Supporto tecnico e logistico : Manuel Goepfert
Aiuto per la traduzione : Arnaldo La Scala

Contatto : metmap@orbifly.com




FONTI E CREDITI :

   NOAA